Time;durP1;ratioP1;P1;durP2;ratioP2;P2;SDS_P1;SDS_P2;PMS_P1;PMS_P2;Temp;Humidity;BMP_temperature;BMP_pressure;BME280_temperature;BME280_humidity;BME280_pressure;Samples;Min_cycle;Max_cycle;Signal;HPM_P1;HPM_P2
2023/06/20 00:01:18;;;;;;;17.08;13.15;;;18.40;99.90;;;;;;5012826;28;20076;-71
2023/06/20 00:03:45;;;;;;;16.05;12.90;;;18.40;99.90;;;;;;5013657;28;20123;-71
2023/06/20 00:06:10;;;;;;;18.50;13.68;;;18.40;99.90;;;;;;5013421;28;20054;-72
2023/06/20 00:08:36;;;;;;;17.02;13.35;;;18.30;99.90;;;;;;5012888;28;20046;-71
2023/06/20 00:11:02;;;;;;;22.15;15.95;;;18.30;99.90;;;;;;5012912;28;20046;-72
2023/06/20 00:13:28;;;;;;;16.58;13.40;;;18.20;99.90;;;;;;5011791;28;20372;-71
2023/06/20 00:15:57;;;;;;;20.80;14.65;;;18.10;99.90;;;;;;5012857;28;20037;-72
2023/06/20 00:18:24;;;;;;;20.15;14.85;;;18.10;99.90;;;;;;5012201;28;20096;-71
2023/06/20 00:20:53;;;;;;;16.17;12.82;;;18.10;99.90;;;;;;5012801;28;20056;-72
2023/06/20 00:23:20;;;;;;;20.92;14.93;;;18.00;99.90;;;;;;5012788;28;20056;-72
2023/06/20 00:25:46;;;;;;;17.27;14.77;;;18.00;99.90;;;;;;5012906;28;20053;-71
2023/06/20 00:28:16;;;;;;;19.95;13.63;;;17.90;99.90;;;;;;5012619;28;20046;-70
2023/06/20 00:30:41;;;;;;;18.17;13.68;;;17.90;99.90;;;;;;5013142;28;20049;-71
2023/06/20 00:33:07;;;;;;;15.68;13.10;;;17.90;99.90;;;;;;4995884;28;20162;-71
2023/06/20 00:35:33;;;;;;;19.50;13.68;;;17.80;99.90;;;;;;5012959;28;20072;-72
2023/06/20 00:38:00;;;;;;;17.73;13.55;;;17.80;99.90;;;;;;5012311;28;20046;-71
2023/06/20 00:40:27;;;;;;;16.98;13.43;;;17.80;99.90;;;;;;5013245;28;20057;-72
2023/06/20 00:42:53;;;;;;;15.10;11.95;;;17.80;99.90;;;;;;5012254;28;20477;-71
2023/06/20 00:45:32;;;;;;;16.52;12.52;;;17.80;99.90;;;;;;5012742;28;20057;-72
2023/06/20 00:48:05;;;;;;;15.13;12.05;;;17.80;99.90;;;;;;4997826;28;20422;-71
2023/06/20 00:50:33;;;;;;;13.27;10.52;;;17.80;99.90;;;;;;5015748;28;20050;-71
2023/06/20 00:53:05;;;;;;;16.05;12.90;;;17.80;99.90;;;;;;4995408;28;20466;-72
2023/06/20 00:55:33;;;;;;;15.95;11.75;;;17.80;99.90;;;;;;5012445;28;20085;-72
2023/06/20 00:58:00;;;;;;;15.63;12.82;;;17.80;99.90;;;;;;5012687;28;20078;-72
2023/06/20 01:00:27;;;;;;;14.02;12.20;;;17.80;99.90;;;;;;5012557;28;20067;-72
2023/06/20 01:02:57;;;;;;;14.85;10.85;;;17.80;99.90;;;;;;5012045;28;20379;-71
2023/06/20 01:05:27;;;;;;;15.18;12.07;;;17.80;99.90;;;;;;5012353;28;20426;-71
2023/06/20 01:08:19;;;;;;;13.50;11.70;;;17.80;99.90;;;;;;5012325;28;20046;-71
2023/06/20 01:10:55;;;;;;;14.20;12.05;;;17.80;99.90;;;;;;4994845;28;20132;-72
2023/06/20 01:13:42;;;;;;;15.18;11.05;;;17.80;99.90;;;;;;5012369;28;20046;-71
2023/06/20 01:16:37;;;;;;;13.70;10.65;;;17.70;99.90;;;;;;5012947;28;20046;-71
2023/06/20 01:19:47;;;;;;;15.15;11.93;;;17.70;99.90;;;;;;4995049;28;20383;-70
2023/06/20 01:22:35;;;;;;;15.43;11.85;;;17.60;99.90;;;;;;4984237;28;20073;-71
2023/06/20 01:25:04;;;;;;;14.15;11.75;;;17.60;99.90;;;;;;5012120;28;20080;-71
2023/06/20 01:27:48;;;;;;;17.25;11.60;;;17.60;99.90;;;;;;5012219;28;20045;-70
2023/06/20 01:30:22;;;;;;;14.82;10.52;;;17.60;99.90;;;;;;5012209;28;20179;-71
2023/06/20 01:32:50;;;;;;;10.95;9.32;;;17.60;99.90;;;;;;4994947;28;20077;-70
2023/06/20 01:35:21;;;;;;;15.30;10.30;;;17.60;99.90;;;;;;5012140;28;20053;-72
2023/06/20 01:37:52;;;;;;;16.23;11.63;;;17.60;99.90;;;;;;5015011;28;20046;-72
2023/06/20 01:40:20;;;;;;;13.88;11.38;;;17.60;99.90;;;;;;5016403;28;20069;-71
2023/06/20 01:42:48;;;;;;;16.75;11.30;;;17.60;99.90;;;;;;5016169;28;20045;-71
2023/06/20 01:45:15;;;;;;;12.85;10.13;;;17.60;99.90;;;;;;5016054;28;20056;-71
2023/06/20 01:47:42;;;;;;;12.80;10.80;;;17.60;99.90;;;;;;5016417;28;20383;-71
2023/06/20 01:50:12;;;;;;;14.93;11.25;;;17.60;99.90;;;;;;4983468;28;20103;-71
2023/06/20 01:52:39;;;;;;;14.93;10.38;;;17.60;99.90;;;;;;5000486;28;20061;-70
2023/06/20 01:55:10;;;;;;;16.25;10.98;;;17.60;99.90;;;;;;5016033;28;20085;-70
2023/06/20 01:57:37;;;;;;;15.60;10.90;;;17.60;99.90;;;;;;5015429;28;20061;-72
2023/06/20 02:00:10;;;;;;;13.77;10.02;;;17.60;99.90;;;;;;4997571;28;20124;-71
2023/06/20 02:02:36;;;;;;;;;;;17.60;99.90;;;;;;4998063;28;20117;-72
2023/06/20 02:05:04;;;;;;;11.65;10.40;;;17.50;99.90;;;;;;5015172;28;19922;-71
2023/06/20 02:07:31;;;;;;;14.45;11.60;;;17.50;99.90;;;;;;4996524;28;20099;-71
2023/06/20 02:09:58;;;;;;;12.80;10.23;;;17.50;99.90;;;;;;4997785;28;20050;-72
2023/06/20 02:12:25;;;;;;;14.07;9.63;;;17.50;99.90;;;;;;5013783;28;20045;-71
2023/06/20 02:14:53;;;;;;;15.57;10.73;;;17.60;99.90;;;;;;4997831;28;20046;-71
2023/06/20 02:17:19;;;;;;;15.95;12.93;;;17.50;99.90;;;;;;5014897;28;20050;-72
2023/06/20 02:19:45;;;;;;;12.85;10.18;;;17.50;99.90;;;;;;5015222;28;20046;-72
2023/06/20 02:22:14;;;;;;;22.02;13.27;;;17.50;99.90;;;;;;5015486;28;20104;-71
2023/06/20 02:24:43;;;;;;;14.70;10.27;;;17.50;99.90;;;;;;5013698;28;20140;-72
2023/06/20 02:27:13;;;;;;;17.42;13.23;;;17.50;99.90;;;;;;5014169;28;20045;-71
2023/06/20 02:29:39;;;;;;;14.70;11.57;;;17.50;99.90;;;;;;5014914;28;20130;-71
2023/06/20 02:32:07;;;;;;;17.77;12.95;;;17.50;99.90;;;;;;5014675;28;20050;-71
2023/06/20 02:34:34;;;;;;;15.90;12.95;;;17.50;99.90;;;;;;5014694;28;20123;-72
2023/06/20 02:37:02;;;;;;;15.60;12.75;;;17.50;99.90;;;;;;5014689;28;20053;-70
2023/06/20 02:39:28;;;;;;;18.27;12.77;;;17.50;99.90;;;;;;4996521;28;20483;-72
2023/06/20 02:41:54;;;;;;;15.80;12.75;;;17.60;99.90;;;;;;5014827;28;20053;-72
2023/06/20 02:44:20;;;;;;;16.92;13.80;;;17.60;99.90;;;;;;5014204;28;20136;-71
2023/06/20 02:47:02;;;;;;;19.05;13.90;;;17.60;99.90;;;;;;5013143;28;20049;-71
2023/06/20 02:50:22;;;;;;;18.77;14.45;;;17.60;99.90;;;;;;5014837;28;20045;-72
2023/06/20 02:52:52;;;;;;;21.65;14.88;;;17.60;99.90;;;;;;4937847;29;20113;-72
2023/06/20 02:55:36;;;;;;;19.48;14.57;;;17.60;99.90;;;;;;4953641;29;20051;-71
2023/06/20 02:58:14;;;;;;;15.95;14.10;;;17.60;99.90;;;;;;4990918;28;20505;-71
2023/06/20 03:00:43;;;;;;;20.10;15.50;;;17.60;99.90;;;;;;5014291;28;20054;-72
2023/06/20 03:03:44;;;;;;;17.92;14.57;;;17.60;99.90;;;;;;5014102;28;20054;-72
2023/06/20 03:06:13;;;;;;;20.13;14.80;;;17.60;99.90;;;;;;5011372;28;20133;-71
2023/06/20 03:08:42;;;;;;;19.33;14.13;;;17.60;99.90;;;;;;5013904;28;20161;-71
2023/06/20 03:11:09;;;;;;;20.00;14.80;;;17.60;99.90;;;;;;5013909;28;20057;-72
2023/06/20 03:13:34;;;;;;;17.63;13.73;;;17.60;99.90;;;;;;5013807;28;20510;-72
2023/06/20 03:16:00;;;;;;;24.13;14.70;;;17.50;99.90;;;;;;5013859;28;20057;-71
2023/06/20 03:18:29;;;;;;;18.08;13.20;;;17.60;99.90;;;;;;5013936;28;20038;-72
2023/06/20 03:20:55;;;;;;;20.73;15.45;;;17.60;99.90;;;;;;4997019;28;20049;-71
2023/06/20 03:23:21;;;;;;;19.90;15.45;;;17.60;99.90;;;;;;5013743;28;20042;-71
2023/06/20 03:25:46;;;;;;;19.48;15.63;;;17.60;99.90;;;;;;5014155;28;20071;-72
2023/06/20 03:28:12;;;;;;;18.73;15.07;;;17.60;99.90;;;;;;5013579;28;20473;-72
2023/06/20 03:30:38;;;;;;;21.58;15.30;;;17.60;99.90;;;;;;5013472;28;20054;-72
2023/06/20 03:33:04;;;;;;;19.63;14.98;;;17.50;99.90;;;;;;4996150;28;20471;-72
2023/06/20 03:35:30;;;;;;;21.55;15.65;;;17.50;99.90;;;;;;5013771;28;20057;-72
2023/06/20 03:37:55;;;;;;;21.63;16.77;;;17.60;99.90;;;;;;5013433;28;20038;-71
2023/06/20 03:40:21;;;;;;;16.25;13.85;;;17.50;99.90;;;;;;5014065;28;20068;-72
2023/06/20 03:42:50;;;;;;;19.83;14.27;;;17.50;99.90;;;;;;5013396;28;20506;-72
2023/06/20 03:45:16;;;;;;;18.15;15.25;;;17.60;99.90;;;;;;5013030;28;20539;-71
2023/06/20 03:47:42;;;;;;;19.85;13.50;;;17.60;99.90;;;;;;5013479;28;20042;-72
2023/06/20 03:50:07;;;;;;;17.92;14.57;;;17.60;99.90;;;;;;5013311;28;20484;-72
2023/06/20 03:52:33;;;;;;;21.25;16.65;;;17.60;99.90;;;;;;4996493;28;20128;-72
2023/06/20 03:54:59;;;;;;;17.95;14.43;;;17.60;99.90;;;;;;5013164;28;20045;-72
2023/06/20 03:57:24;;;;;;;20.35;14.60;;;17.60;99.90;;;;;;5013191;28;20399;-71
2023/06/20 03:59:50;;;;;;;20.98;16.08;;;17.60;99.90;;;;;;5013143;28;20042;-72
2023/06/20 04:02:16;;;;;;;17.35;14.60;;;17.60;99.90;;;;;;5013263;28;20479;-70
2023/06/20 04:04:49;;;;;;;23.52;15.07;;;17.60;99.90;;;;;;5013502;28;20481;-71
2023/06/20 04:07:21;;;;;;;20.25;16.17;;;17.60;99.90;;;;;;5013407;28;20456;-72
2023/06/20 04:09:49;;;;;;;22.15;15.65;;;17.60;99.90;;;;;;5013123;28;20052;-71
2023/06/20 04:12:15;;;;;;;19.55;15.27;;;17.70;99.90;;;;;;5013479;28;20128;-72
2023/06/20 04:14:41;;;;;;;19.40;14.77;;;17.70;99.90;;;;;;5012142;28;20093;-72
2023/06/20 04:17:07;;;;;;;20.40;15.10;;;17.70;99.90;;;;;;5013227;28;20402;-72
2023/06/20 04:19:33;;;;;;;18.70;14.77;;;17.70;99.90;;;;;;4995707;28;20049;-71
2023/06/20 04:21:59;;;;;;;20.15;14.98;;;17.70;99.90;;;;;;5013243;28;20045;-71
2023/06/20 04:24:25;;;;;;;21.13;15.95;;;17.80;99.90;;;;;;5012790;28;20061;-72
2023/06/20 04:26:51;;;;;;;15.63;12.45;;;17.80;99.90;;;;;;5012688;28;20045;-71
2023/06/20 04:29:17;;;;;;;18.27;15.18;;;17.80;99.90;;;;;;5012997;28;20077;-71
2023/06/20 04:31:42;;;;;;;15.57;11.05;;;17.90;99.90;;;;;;4995172;28;20057;-71
2023/06/20 04:34:08;;;;;;;17.45;13.63;;;17.90;99.90;;;;;;5012595;28;20049;-72
2023/06/20 04:36:34;;;;;;;17.73;12.25;;;18.00;99.90;;;;;;5012725;28;20053;-71
2023/06/20 04:39:00;;;;;;;17.10;13.18;;;18.00;99.90;;;;;;5012703;28;20153;-71
2023/06/20 04:41:26;;;;;;;17.48;13.88;;;18.00;99.90;;;;;;5012827;28;20155;-72
2023/06/20 04:43:51;;;;;;;15.55;13.40;;;18.10;99.90;;;;;;5012910;28;20042;-71
2023/06/20 04:46:17;;;;;;;16.63;12.95;;;18.20;99.90;;;;;;5013001;28;20042;-71
2023/06/20 04:48:44;;;;;;;15.70;13.43;;;18.20;99.90;;;;;;5012690;28;20046;-70
2023/06/20 04:51:10;;;;;;;16.15;13.05;;;18.30;99.90;;;;;;4995332;28;20480;-72
2023/06/20 04:53:36;;;;;;;17.65;13.88;;;18.30;99.90;;;;;;4995517;28;20046;-72
2023/06/20 04:56:02;;;;;;;17.17;14.27;;;18.40;99.90;;;;;;5012323;28;20375;-72
2023/06/20 04:58:28;;;;;;;18.05;14.18;;;18.50;99.90;;;;;;5012353;28;20046;-71
2023/06/20 05:00:59;;;;;;;16.63;14.35;;;18.50;99.90;;;;;;5012202;28;20048;-71
2023/06/20 05:03:25;;;;;;;16.60;13.27;;;18.60;99.90;;;;;;5012390;28;20050;-72
2023/06/20 05:05:52;;;;;;;16.52;13.52;;;18.60;99.90;;;;;;5012724;28;20053;-70
2023/06/20 05:08:18;;;;;;;18.67;13.82;;;18.70;99.90;;;;;;5011834;28;20498;-71
2023/06/20 05:10:44;;;;;;;16.95;13.48;;;18.80;99.90;;;;;;5012955;28;20074;-71
2023/06/20 05:13:10;;;;;;;14.30;11.40;;;18.80;99.90;;;;;;4997901;28;20374;-71
2023/06/20 05:15:35;;;;;;;14.80;12.48;;;18.90;99.90;;;;;;5016368;28;20041;-72
2023/06/20 05:18:01;;;;;;;15.60;13.13;;;18.90;99.90;;;;;;5016083;28;20097;-71
2023/06/20 05:20:27;;;;;;;16.45;13.05;;;19.00;99.90;;;;;;5016007;28;20043;-71
2023/06/20 05:22:53;;;;;;;15.77;12.65;;;19.10;99.90;;;;;;5015954;28;20082;-71
2023/06/20 05:25:19;;;;;;;17.33;12.95;;;19.10;99.90;;;;;;5016282;28;20049;-71
2023/06/20 05:27:47;;;;;;;14.65;12.48;;;19.20;99.90;;;;;;5015837;28;20447;-71
2023/06/20 05:30:13;;;;;;;17.15;13.70;;;19.20;99.90;;;;;;5015853;28;20112;-71
2023/06/20 05:32:39;;;;;;;12.93;10.45;;;19.30;99.90;;;;;;4998966;28;20046;-72
2023/06/20 05:35:07;;;;;;;19.10;13.32;;;19.30;99.90;;;;;;5015414;28;20065;-71
2023/06/20 05:37:33;;;;;;;14.98;12.18;;;19.40;99.90;;;;;;5015647;28;20092;-72
2023/06/20 05:39:59;;;;;;;15.80;12.20;;;19.40;99.90;;;;;;5014341;28;20062;-71
2023/06/20 05:42:24;;;;;;;15.82;12.98;;;19.40;99.90;;;;;;4982268;28;20068;-72
2023/06/20 05:44:50;;;;;;;14.15;11.93;;;19.40;99.90;;;;;;5014585;28;20471;-72
2023/06/20 05:47:19;;;;;;;16.85;13.80;;;19.40;99.90;;;;;;5015568;28;20046;-71
2023/06/20 05:49:48;;;;;;;20.70;13.27;;;19.50;99.90;;;;;;5015045;28;20044;-71
2023/06/20 05:52:14;;;;;;;16.50;12.70;;;19.50;99.90;;;;;;4998026;28;20049;-71
2023/06/20 05:54:42;;;;;;;17.00;12.85;;;19.50;99.90;;;;;;5015728;28;20100;-72
2023/06/20 05:57:08;;;;;;;17.15;12.27;;;19.60;99.90;;;;;;5015336;28;20046;-71
2023/06/20 05:59:34;;;;;;;19.95;13.88;;;19.70;99.90;;;;;;5015275;28;20042;-71
2023/06/20 06:02:00;;;;;;;16.25;13.55;;;19.80;99.90;;;;;;5015596;28;20050;-72
2023/06/20 06:04:26;;;;;;;15.32;11.55;;;19.90;99.90;;;;;;5015150;28;20061;-72
2023/06/20 06:06:52;;;;;;;14.68;12.20;;;19.90;99.90;;;;;;5015272;28;20050;-71
2023/06/20 06:09:19;;;;;;;16.10;13.27;;;20.00;99.90;;;;;;5014712;28;20060;-72
2023/06/20 06:11:45;;;;;;;19.63;13.15;;;20.00;99.90;;;;;;5015156;28;20046;-71
2023/06/20 06:14:14;;;;;;;18.23;13.15;;;20.20;99.90;;;;;;5015052;28;20041;-71
2023/06/20 06:16:40;;;;;;;19.83;13.35;;;20.20;99.90;;;;;;5014932;28;20439;-71
2023/06/20 06:19:06;;;;;;;15.75;12.88;;;20.30;99.90;;;;;;4997374;28;20084;-72
2023/06/20 06:21:31;;;;;;;16.50;12.55;;;20.40;99.90;;;;;;5014853;28;20045;-71
2023/06/20 06:23:57;;;;;;;16.02;13.30;;;20.50;99.90;;;;;;5014359;28;20129;-71
2023/06/20 06:26:23;;;;;;;16.33;13.73;;;20.50;99.90;;;;;;5014691;28;20045;-72
2023/06/20 06:28:49;;;;;;;16.67;12.50;;;20.60;99.90;;;;;;5014753;28;20045;-72
2023/06/20 06:31:21;;;;;;;14.32;12.60;;;20.70;99.90;;;;;;5014984;28;20172;-71
2023/06/20 06:33:47;;;;;;;17.85;12.57;;;20.80;99.90;;;;;;5014986;28;20068;-72
2023/06/20 06:36:15;;;;;;;15.75;12.00;;;20.90;99.90;;;;;;5014738;28;20049;-71
2023/06/20 06:38:50;;;;;;;14.60;11.63;;;21.10;99.90;;;;;;5014471;28;20062;-71
2023/06/20 06:41:18;;;;;;;14.88;13.23;;;21.60;99.90;;;;;;5014837;28;20129;-71
2023/06/20 06:43:44;;;;;;;14.48;12.65;;;21.90;99.90;;;;;;5014391;28;20056;-71
2023/06/20 06:46:10;;;;;;;14.10;11.48;;;22.10;99.90;;;;;;4996847;28;20056;-71
2023/06/20 06:48:35;;;;;;;12.60;11.13;;;22.30;99.90;;;;;;5014200;28;20038;-72
2023/06/20 06:51:02;;;;;;;13.50;10.52;;;22.70;99.90;;;;;;5014508;28;20047;-71
2023/06/20 06:53:28;;;;;;;17.02;11.95;;;22.90;99.90;;;;;;5014035;28;20057;-72
2023/06/20 06:55:53;;;;;;;16.88;12.20;;;22.90;99.90;;;;;;5014193;28;20041;-71
2023/06/20 06:58:19;;;;;;;12.85;11.07;;;23.00;99.90;;;;;;5014202;28;20053;-72
2023/06/20 07:00:45;;;;;;;17.00;11.38;;;23.10;99.90;;;;;;5014133;28;20057;-70
2023/06/20 07:03:11;;;;;;;14.02;11.27;;;23.20;99.90;;;;;;5013995;28;20114;-72
2023/06/20 07:05:37;;;;;;;13.55;11.05;;;23.30;99.90;;;;;;5014079;28;20050;-70
2023/06/20 07:08:03;;;;;;;12.63;10.93;;;23.40;99.90;;;;;;4979947;28;20100;-71
2023/06/20 07:10:29;;;;;;;12.27;10.98;;;23.40;99.90;;;;;;5014496;28;20042;-71
2023/06/20 07:12:55;;;;;;;15.23;11.65;;;23.50;99.90;;;;;;5013961;28;20467;-71
2023/06/20 07:15:20;;;;;;;15.68;10.70;;;23.40;99.90;;;;;;5013924;28;20123;-71
2023/06/20 07:17:46;;;;;;;13.75;10.93;;;23.30;99.90;;;;;;4996091;28;20128;-71
2023/06/20 07:20:12;;;;;;;16.33;10.57;;;23.20;99.90;;;;;;4996358;28;20054;-71
2023/06/20 07:22:37;;;;;;;13.93;11.27;;;23.30;99.90;;;;;;5013731;28;20053;-71
2023/06/20 07:25:04;;;;;;;11.43;10.27;;;23.30;99.90;;;;;;5014016;28;20096;-72
2023/06/20 07:27:30;;;;;;;13.63;10.00;;;23.40;99.90;;;;;;5013768;28;20486;-71
2023/06/20 07:29:57;;;;;;;12.90;10.00;;;23.40;99.90;;;;;;5013759;28;20475;-71
2023/06/20 07:32:22;;;;;;;12.43;10.30;;;23.50;99.90;;;;;;5013743;28;20120;-71
2023/06/20 07:34:48;;;;;;;13.63;11.10;;;23.60;99.90;;;;;;4995292;28;20045;-72
2023/06/20 07:37:14;;;;;;;11.60;9.77;;;23.70;99.90;;;;;;5014023;28;20113;-71
2023/06/20 07:39:42;;;;;;;14.68;10.15;;;23.60;99.90;;;;;;5013473;28;20474;-71
2023/06/20 07:42:11;;;;;;;12.85;11.20;;;23.60;99.90;;;;;;4996434;28;20375;-71
2023/06/20 07:44:37;;;;;;;15.77;11.75;;;23.60;99.90;;;;;;5013465;28;20119;-70
2023/06/20 07:47:03;;;;;;;11.38;9.25;;;23.80;99.90;;;;;;5013339;28;20037;-70
2023/06/20 07:49:28;;;;;;;11.93;10.35;;;24.20;99.90;;;;;;5013221;28;20049;-70
2023/06/20 07:51:54;;;;;;;11.35;10.13;;;24.60;99.90;;;;;;5013360;28;20553;-71
2023/06/20 07:54:20;;;;;;;13.07;11.13;;;24.80;99.60;;;;;;5013137;28;20052;-70
2023/06/20 07:56:45;;;;;;;11.45;9.45;;;24.80;99.40;;;;;;5013260;28;20056;-70
2023/06/20 07:59:11;;;;;;;15.93;10.93;;;24.60;99.30;;;;;;4995029;28;20062;-69
2023/06/20 08:01:37;;;;;;;13.90;10.82;;;24.30;99.40;;;;;;5012838;28;20049;-71
2023/06/20 08:04:03;;;;;;;12.75;10.25;;;24.10;99.70;;;;;;5012837;28;20500;-71
2023/06/20 08:06:29;;;;;;;12.93;10.73;;;23.80;99.90;;;;;;5013113;28;20060;-71
2023/06/20 08:08:54;;;;;;;14.70;10.57;;;23.60;99.90;;;;;;4978879;28;20053;-71
2023/06/20 08:11:21;;;;;;;11.05;9.93;;;23.50;99.90;;;;;;5012517;28;20046;-72
2023/06/20 08:13:47;;;;;;;15.00;10.32;;;23.50;99.90;;;;;;5012551;28;20069;-72
2023/06/20 08:16:13;;;;;;;13.55;10.90;;;23.40;99.90;;;;;;5012645;28;20427;-70
2023/06/20 08:18:38;;;;;;;12.88;10.63;;;23.30;99.90;;;;;;4995542;28;20136;-71
2023/06/20 08:21:04;;;;;;;12.38;11.18;;;23.20;99.90;;;;;;5012787;28;20057;-71
2023/06/20 08:23:30;;;;;;;17.02;11.23;;;23.10;99.90;;;;;;5012808;28;20057;-71
2023/06/20 08:25:56;;;;;;;13.95;11.10;;;23.00;99.90;;;;;;5012692;28;20089;-70
2023/06/20 08:28:23;;;;;;;15.25;10.40;;;22.90;99.90;;;;;;5012560;28;20078;-71
2023/06/20 08:30:49;;;;;;;13.55;10.80;;;22.90;99.90;;;;;;5012462;28;20112;-70
2023/06/20 08:33:15;;;;;;;14.93;10.88;;;22.90;99.90;;;;;;5012711;28;20056;-71
2023/06/20 08:35:41;;;;;;;13.00;10.43;;;23.00;99.90;;;;;;5012699;28;20104;-71
2023/06/20 08:38:07;;;;;;;13.80;11.43;;;23.10;99.90;;;;;;5012696;28;20342;-71
2023/06/20 08:40:34;;;;;;;12.43;11.15;;;23.20;99.90;;;;;;5012735;28;20062;-71
2023/06/20 08:43:00;;;;;;;12.38;11.07;;;23.20;99.90;;;;;;4995271;28;20507;-72
2023/06/20 08:45:27;;;;;;;13.32;11.48;;;23.30;99.90;;;;;;5013263;28;20046;-69
2023/06/20 08:47:58;;;;;;;13.48;10.77;;;23.40;99.90;;;;;;5016987;28;20084;-71
2023/06/20 08:50:25;;;;;;;13.23;11.18;;;23.50;99.90;;;;;;4999936;28;20184;-72
2023/06/20 08:52:53;;;;;;;12.75;10.50;;;23.50;99.90;;;;;;4999392;28;20050;-71
2023/06/20 08:55:20;;;;;;;13.73;10.02;;;23.60;99.90;;;;;;5016749;28;20046;-72
2023/06/20 08:57:46;;;;;;;13.52;11.63;;;23.60;99.90;;;;;;5016582;28;20115;-71
2023/06/20 09:00:21;;;;;;;13.55;10.80;;;23.60;99.90;;;;;;4998773;28;20472;-71
2023/06/20 09:02:51;;;;;;;12.30;10.20;;;23.70;99.90;;;;;;5017289;28;20373;-70
2023/06/20 09:05:17;;;;;;;11.63;10.10;;;23.90;99.90;;;;;;5016351;28;20092;-71
2023/06/20 09:07:44;;;;;;;12.55;10.02;;;24.00;99.90;;;;;;5016490;28;20049;-71
2023/06/20 09:10:12;;;;;;;10.93;9.63;;;24.20;99.90;;;;;;5016241;28;20060;-71
2023/06/20 09:12:52;;;;;;;12.10;9.57;;;24.40;99.90;;;;;;5016058;28;20046;-71
2023/06/20 09:15:21;;;;;;;11.77;10.10;;;24.40;99.90;;;;;;4982008;28;20550;-71
2023/06/20 09:17:51;;;;;;;10.80;9.32;;;24.60;99.90;;;;;;5016449;28;20360;-71
2023/06/20 09:20:17;;;;;;;13.02;9.88;;;24.70;99.90;;;;;;5016012;28;20041;-71
2023/06/20 09:22:43;;;;;;;11.27;9.40;;;24.80;99.90;;;;;;5016064;28;20487;-71
2023/06/20 09:25:10;;;;;;;11.73;9.65;;;24.90;99.90;;;;;;5016344;28;20060;-71
2023/06/20 09:27:37;;;;;;;11.48;10.27;;;25.20;99.90;;;;;;5015803;28;20508;-72
2023/06/20 09:30:04;;;;;;;9.80;8.80;;;25.30;99.90;;;;;;5015848;28;20076;-71
2023/06/20 09:32:37;;;;;;;9.30;8.18;;;25.50;99.90;;;;;;5016286;28;20049;-71
2023/06/20 09:35:10;;;;;;;10.85;9.55;;;25.70;99.80;;;;;;5015790;28;20104;-71
2023/06/20 09:37:40;;;;;;;11.02;8.60;;;25.80;99.60;;;;;;5016448;28;20057;-70
2023/06/20 09:40:14;;;;;;;12.90;8.57;;;26.20;99.40;;;;;;5015598;28;20046;-70
2023/06/20 09:42:41;;;;;;;9.18;8.23;;;26.60;99.00;;;;;;5015652;28;20053;-71
2023/06/20 09:45:15;;;;;;;11.63;8.85;;;26.70;98.70;;;;;;5015216;28;20379;-71
2023/06/20 09:47:43;;;;;;;8.35;7.43;;;27.00;98.50;;;;;;5015998;28;20089;-71
2023/06/20 09:50:13;;;;;;;11.20;7.47;;;27.50;98.20;;;;;;5015536;28;20151;-71
2023/06/20 09:52:53;;;;;;;11.10;8.55;;;28.00;97.70;;;;;;5016078;28;20046;-72
2023/06/20 09:55:21;;;;;;;11.45;8.05;;;28.20;96.20;;;;;;4997943;28;20103;-71
2023/06/20 09:57:53;;;;;;;10.13;8.32;;;28.50;96.80;;;;;;5014454;28;20046;-72
2023/06/20 10:00:20;;;;;;;8.25;7.45;;;28.60;96.30;;;;;;5015358;28;20042;-70
2023/06/20 10:02:49;;;;;;;8.15;7.13;;;28.80;96.30;;;;;;4997816;28;20560;-72
2023/06/20 10:05:17;;;;;;;11.38;8.25;;;29.10;95.80;;;;;;5015125;28;20128;-72
2023/06/20 10:07:44;;;;;;;8.07;7.25;;;29.30;95.30;;;;;;5015224;28;20124;-72
2023/06/20 10:10:11;;;;;;;8.02;7.15;;;29.40;95.00;;;;;;4997726;28;20128;-72
2023/06/20 10:12:39;;;;;;;7.53;6.70;;;29.50;94.70;;;;;;5015417;28;20053;-71
2023/06/20 10:15:09;;;;;;;9.50;6.82;;;29.70;94.70;;;;;;5014973;28;20108;-72
2023/06/20 10:17:40;;;;;;;9.68;7.15;;;30.00;94.70;;;;;;5015292;28;20045;-72
2023/06/20 10:20:07;;;;;;;7.85;6.82;;;30.30;94.30;;;;;;5014994;28;20495;-72
2023/06/20 10:22:42;;;;;;;7.50;6.75;;;30.20;93.90;;;;;;5014913;28;20061;-72
2023/06/20 10:25:15;;;;;;;8.00;7.15;;;30.30;93.30;;;;;;5015024;28;20076;-72
2023/06/20 10:27:53;;;;;;;7.55;6.78;;;30.40;93.40;;;;;;5014774;28;20048;-71
2023/06/20 10:30:54;;;;;;;7.68;6.93;;;30.40;93.70;;;;;;5014937;28;20054;-71
2023/06/20 10:33:35;;;;;;;6.30;5.70;;;30.70;92.90;;;;;;5014772;28;20111;-71
2023/06/20 10:36:02;;;;;;;7.60;6.80;;;30.90;93.50;;;;;;4997217;28;20125;-71
2023/06/20 10:38:29;;;;;;;9.27;6.72;;;31.20;93.50;;;;;;5014397;28;20042;-71
2023/06/20 10:41:10;;;;;;;6.63;5.80;;;31.30;93.00;;;;;;5014769;28;20520;-71
2023/06/20 10:43:58;;;;;;;7.43;6.72;;;31.30;92.10;;;;;;5014708;28;20584;-71
2023/06/20 10:46:42;;;;;;;7.50;6.75;;;31.30;92.40;;;;;;5014509;28;20482;-71
2023/06/20 10:49:09;;;;;;;6.97;6.30;;;31.20;92.30;;;;;;5014582;28;20053;-71
2023/06/20 10:51:53;;;;;;;7.45;6.63;;;31.20;92.90;;;;;;5014291;28;20111;-71
2023/06/20 10:54:20;;;;;;;7.70;6.90;;;31.10;92.10;;;;;;4996900;28;20045;-71
2023/06/20 10:56:47;;;;;;;7.97;6.72;;;31.00;92.40;;;;;;5014858;28;20152;-71
2023/06/20 10:59:15;;;;;;;7.28;6.57;;;30.90;92.60;;;;;;5014298;28;20045;-71
2023/06/20 11:01:42;;;;;;;8.02;6.38;;;30.90;92.50;;;;;;5014070;28;20089;-71
2023/06/20 11:04:12;;;;;;;6.55;5.95;;;30.90;92.40;;;;;;5014224;28;20041;-73
2023/06/20 11:06:39;;;;;;;7.85;5.88;;;30.60;92.00;;;;;;5014170;28;20050;-71
2023/06/20 11:09:04;;;;;;;6.47;5.82;;;30.40;92.50;;;;;;5014332;28;20046;-70
2023/06/20 11:11:37;;;;;;;6.50;5.90;;;30.50;92.20;;;;;;5014656;28;20050;-70
2023/06/20 11:14:20;;;;;;;7.85;5.85;;;30.40;91.90;;;;;;5014497;28;20050;-73
2023/06/20 11:16:47;;;;;;;9.30;5.93;;;30.50;91.90;;;;;;4996442;28;20389;-73
2023/06/20 11:19:14;;;;;;;6.03;5.43;;;30.40;91.90;;;;;;5013461;28;20487;-73
2023/06/20 11:21:40;;;;;;;6.75;5.75;;;30.60;91.90;;;;;;5013828;28;20049;-73
2023/06/20 11:24:06;;;;;;;5.90;5.30;;;30.70;91.70;;;;;;5014110;28;20042;-73
2023/06/20 11:26:34;;;;;;;6.82;5.53;;;31.00;91.20;;;;;;4996366;28;20042;-73
2023/06/20 11:29:01;;;;;;;6.72;6.13;;;31.00;91.00;;;;;;5013461;28;20049;-71
2023/06/20 11:31:27;;;;;;;7.72;6.13;;;30.70;91.20;;;;;;5013579;28;20050;-71
2023/06/20 11:34:02;;;;;;;6.13;5.55;;;30.40;91.40;;;;;;5013259;28;20537;-71
2023/06/20 11:36:31;;;;;;;6.90;6.20;;;30.40;91.70;;;;;;5013207;28;20055;-71
2023/06/20 11:39:07;;;;;;;7.00;6.32;;;30.20;91.40;;;;;;5013232;28;20054;-71
2023/06/20 11:41:33;;;;;;;7.13;6.53;;;30.10;91.50;;;;;;4995981;28;20096;-72
2023/06/20 11:44:00;;;;;;;7.90;7.10;;;29.90;91.50;;;;;;5013406;28;20049;-71
2023/06/20 11:46:26;;;;;;;9.02;6.95;;;29.90;91.50;;;;;;4995909;28;20561;-73
2023/06/20 11:48:54;;;;;;;8.35;7.55;;;30.00;91.50;;;;;;5013752;28;20050;-72
2023/06/20 11:51:21;;;;;;;9.80;6.70;;;30.20;91.40;;;;;;5013314;28;20465;-72
2023/06/20 11:53:47;;;;;;;6.53;5.80;;;30.20;91.30;;;;;;5013925;28;20081;-73
2023/06/20 11:56:14;;;;;;;8.23;7.43;;;30.00;91.20;;;;;;5013118;28;20054;-72
2023/06/20 11:58:42;;;;;;;7.07;6.47;;;29.90;91.20;;;;;;4979988;28;20501;-73
2023/06/20 12:01:14;;;;;;;7.30;6.57;;;30.10;91.20;;;;;;5013225;28;20063;-72
2023/06/20 12:03:41;;;;;;;7.15;6.45;;;30.20;90.90;;;;;;4996193;28;20049;-73
2023/06/20 12:06:27;;;;;;;6.15;5.55;;;30.10;91.00;;;;;;5013147;28;20049;-72
2023/06/20 12:08:57;;;;;;;8.52;5.85;;;30.20;91.00;;;;;;5012898;28;20041;-73
2023/06/20 12:11:24;;;;;;;6.30;5.70;;;30.30;91.00;;;;;;5013525;28;20042;-73
2023/06/20 12:13:52;;;;;;;6.70;5.60;;;30.50;90.90;;;;;;5012872;28;20085;-72
2023/06/20 12:16:19;;;;;;;6.13;5.47;;;30.60;90.50;;;;;;5013386;28;20070;-73
2023/06/20 12:18:46;;;;;;;6.43;5.75;;;30.60;90.40;;;;;;5013045;28;20134;-73
2023/06/20 12:21:11;;;;;;;5.65;5.15;;;30.50;90.00;;;;;;5012966;28;20038;-73
2023/06/20 12:23:37;;;;;;;7.00;5.63;;;30.70;90.00;;;;;;5012833;28;20497;-72
2023/06/20 12:26:03;;;;;;;6.57;5.82;;;30.90;89.40;;;;;;5012811;28;20103;-71
2023/06/20 12:28:29;;;;;;;5.53;4.95;;;30.80;89.20;;;;;;5012764;28;20049;-71
2023/06/20 12:30:54;;;;;;;6.13;4.78;;;30.90;89.10;;;;;;4995576;28;20049;-71
2023/06/20 12:33:20;;;;;;;6.20;5.60;;;31.00;88.80;;;;;;5012742;28;20054;-70
2023/06/20 12:35:46;;;;;;;6.10;5.32;;;30.90;88.60;;;;;;5013148;28;20046;-72
2023/06/20 12:38:11;;;;;;;6.47;5.85;;;30.90;88.70;;;;;;5012668;28;20038;-72
2023/06/20 12:40:37;;;;;;;6.10;5.53;;;30.80;88.90;;;;;;5012286;28;20382;-72